F5OZP-13 Weather Reports


time (UTC)temp
F
wind
direction
speed
knots
gust
knots
rain 1hr
in
rain 24hr
in
rain mn
in
humidity
%
barometer
mb
20260506115105 64 0.0 0.0 0.00 0.00 0.00 99 1014.9
20260506114605 64 0.0 0.0 0.00 0.00 0.00 99 1014.8
20260506114049 64 0.0 0.0 0.00 0.00 0.00 99 1014.9
20260506113541 62 0.0 0.0 0.00 0.00 0.00 99 1014.9
20260506113032 62 0.0 0.0 0.00 0.00 0.00 99 1014.9
20260506112524 62 0.0 0.0 0.00 0.00 0.00 99 1015.0
20260506112016 64 0.0 0.0 0.00 0.00 0.00 99 1014.9
20260506111516 65 0.0 0.0 0.00 0.00 0.00 99 1014.8
20260506111000 65 0.0 0.0 0.00 0.00 0.00 99 1014.8
20260506110456 64 0.0 0.0 0.00 0.00 0.00 99 1014.8
20260506105948 65 0.0 0.0 0.00 0.00 0.00 99 1014.8
20260506105440 65 0.0 0.0 0.00 0.00 0.00 99 1014.7
20260506104931 62 0.0 0.0 0.00 0.00 0.00 99 1014.8
20260506104431 62 0.0 0.0 0.00 0.00 0.00 99 1014.7
20260506103915 61 0.0 0.0 0.00 0.00 0.00 99 1014.7
20260506103407 60 0.0 0.0 0.00 0.00 0.00 99 1014.8
20260506102859 60 0.0 0.0 0.00 0.00 0.00 99 1014.9
20260506102351 59 0.0 0.0 0.00 0.00 0.00 99 1014.9
20260506101842 60 0.0 0.0 0.00 0.00 0.00 99 1015.0
20260506101342 59 0.0 0.0 0.00 0.00 0.00 99 1015.0
20260506100830 58 0.0 0.0 0.00 0.00 0.00 99 1015.0
20260506100322 59 0.0 0.0 0.00 0.00 0.00 99 1014.9
20260506095814 59 0.0 0.0 0.00 0.00 0.00 99 1014.9
20260506095306 60 0.0 0.0 0.00 0.00 0.00 99 1014.9
20260506094758 60 0.0 0.0 0.00 0.00 0.00 99 1014.8
20260506094258 59 0.0 0.0 0.00 0.00 0.00 99 1014.6
20260506093233 58 0.0 0.0 0.00 0.00 0.00 99 1014.5
20260506092725 58 0.0 0.0 0.00 0.00 0.00 99 1014.5
20260506092217 58 0.0 0.0 0.00 0.00 0.00 99 1014.5
20260506091709 58 0.0 0.0 0.00 0.00 0.00 99 1014.4
20260506091209 58 0.0 0.0 0.00 0.00 0.00 99 1014.4
20260506090657 59 0.0 0.0 0.00 0.00 0.00 99 1014.3
20260506090149 58 0.0 0.0 0.00 0.00 0.00 99 1014.3
20260506085641 58 0.0 0.0 0.00 0.00 0.00 99 1014.3
20260506085133 58 0.0 0.0 0.00 0.00 0.00 99 1014.4
20260506084625 58 0.0 0.0 0.00 0.00 0.00 99 1014.3
20260506084125 58 0.0 0.0 0.00 0.00 0.00 99 1014.2
20260506083608 58 0.0 0.0 0.00 0.00 0.00 99 1014.2
20260506083100 59 0.0 0.0 0.00 0.00 0.00 99 1014.2
20260506082552 60 0.0 0.0 0.00 0.00 0.00 99 1014.1
20260506082044 60 0.0 0.0 0.00 0.00 0.00 99 1014.0
20260506081536 60 0.0 0.0 0.00 0.00 0.00 99 1014.1
20260506081035 59 0.0 0.0 0.00 0.00 0.00 99 1014.2
20260506080524 58 0.0 0.0 0.00 0.00 0.00 99 1014.2
20260506073435 59 0.0 0.0 0.00 0.00 0.00 99 1013.8
20260506072927 59 0.0 0.0 0.00 0.00 0.00 99 1013.6
20260506072419 58 0.0 0.0 0.00 0.00 0.00 99 1013.7
20260506071911 59 0.0 0.0 0.00 0.00 0.00 99 1013.7
20260506071402 59 0.0 0.0 0.00 0.00 0.00 99 1013.8
20260506070907 58 0.0 0.0 0.00 0.00 0.00 99 1013.8
20260506070351 58 0.0 0.0 0.00 0.00 0.00 99 1013.6
20260506062245 60 0.0 0.0 0.00 0.00 0.00 99 1013.5
20260506061737 60 0.0 0.0 0.00 0.00 0.00 99 1013.5
20260506061229 60 0.0 0.0 0.00 0.00 0.00 99 1013.5
20260506060733 60 0.0 0.0 0.00 0.00 0.00 99 1013.5
20260506060217 60 0.0 0.0 0.00 0.00 0.00 99 1013.5
20260505211740 55 0.0 0.0 0.00 0.00 0.00 99 1015.2
20260505211232 55 0.0 0.0 0.00 0.00 0.00 99 1015.1
20260505210728 55 0.0 0.0 0.00 0.00 0.00 99 1015.2
20260505210220 55 0.0 0.0 0.00 0.00 0.00 99 1015.3
20260505205720 55 0.0 0.0 0.00 0.00 0.00 99 1015.3
20260505205204 55 0.0 0.0 0.00 0.00 0.00 99 1015.2
20260505204656 55 0.0 0.0 0.00 0.00 0.00 99 1015.2
20260505204147 55 0.0 0.0 0.00 0.00 0.00 99 1015.3
20260505203639 55 0.0 0.0 0.00 0.00 0.00 99 1015.3
20260505203131 55 0.0 0.0 0.00 0.00 0.00 99 1015.2
20260505202631 55 0.0 0.0 0.00 0.00 0.00 99 1015.2
20260505202115 54 0.0 0.0 0.00 0.00 0.00 99 1015.2
20260505201606 54 0.0 0.0 0.00 0.00 0.00 99 1015.0
20260505201058 56 0.0 0.0 0.00 0.00 0.00 99 1015.1
20260505200555 55 0.0 0.0 0.00 0.00 0.00 99 1015.1
20260505200047 55 0.0 0.0 0.00 0.00 0.00 99 1015.0
20260505195546 56 0.0 0.0 0.00 0.00 0.00 99 1015.0
20260505195030 56 0.0 0.0 0.00 0.00 0.00 99 1014.9
20260505194522 56 0.0 0.0 0.00 0.00 0.00 99 1014.9
20260505194014 55 0.0 0.0 0.00 0.00 0.00 99 1014.7
20260505193506 55 0.0 0.0 0.00 0.00 0.00 99 1014.7
20260505192957 55 0.0 0.0 0.00 0.00 0.00 99 1014.7
20260505192457 55 0.0 0.0 0.00 0.00 0.00 99 1014.7
20260505191941 55 0.0 0.0 0.00 0.00 0.00 99 1014.6
20260505191433 55 0.0 0.0 0.00 0.00 0.00 99 1014.5
20260505190929 55 0.0 0.0 0.00 0.00 0.00 99 1014.5
20260505190421 56 0.0 0.0 0.00 0.00 0.00 99 1014.5
20260505185913 56 0.0 0.0 0.00 0.00 0.00 99 1014.5
20260505185413 57 0.0 0.0 0.00 0.00 0.00 99 1014.5
20260505184857 58 0.0 0.0 0.00 0.00 0.00 99 1014.5
20260505184349 58 0.0 0.0 0.00 0.00 0.00 99 1014.5
20260505183840 58 0.0 0.0 0.00 0.00 0.00 99 1014.4
20260505183332 58 0.0 0.0 0.00 0.00 0.00 99 1014.3
20260505182824 58 0.0 0.0 0.00 0.00 0.00 99 1014.3
20260505182324 58 0.0 0.0 0.00 0.00 0.00 99 1014.3
20260505181807 58 0.0 0.0 0.00 0.00 0.00 99 1014.4
20260505181259 58 0.0 0.0 0.00 0.00 0.00 99 1014.3
20260505180756 58 0.0 0.0 0.00 0.00 0.00 99 1014.3
20260505180248 58 0.0 0.0 0.00 0.00 0.00 99 1014.3
20260505175740 58 0.0 0.0 0.00 0.00 0.00 99 1014.4
20260505175240 58 0.0 0.0 0.00 0.00 0.00 99 1014.4
20260505174723 58 0.0 0.0 0.00 0.00 0.00 99 1014.3
20260505174215 58 0.0 0.0 0.00 0.00 0.00 99 1014.4
20260505173707 57 0.0 0.0 0.00 0.00 0.00 99 1014.4
20260505173159 57 0.0 0.0 0.00 0.00 0.00 99 1014.3
20260505172651 57 0.0 0.0 0.00 0.00 0.00 99 1014.4
20260505172150 58 0.0 0.0 0.00 0.00 0.00 99 1014.4
20260505171634 58 0.0 0.0 0.00 0.00 0.00 99 1014.4
20260505171126 58 0.0 0.0 0.00 0.00 0.00 99 1014.5
20260505170622 59 0.0 0.0 0.00 0.00 0.00 99 1014.4
20260505170114 59 0.0 0.0 0.00 0.00 0.00 99 1014.5
20260505165606 60 0.0 0.0 0.00 0.00 0.00 99 1014.5
20260505165106 59 0.0 0.0 0.00 0.00 0.00 99 1014.5
20260505164550 60 0.0 0.0 0.00 0.00 0.00 99 1014.5
20260505164042 59 0.0 0.0 0.00 0.00 0.00 99 1014.5
20260505163533 60 0.0 0.0 0.00 0.00 0.00 99 1014.6
20260505163025 60 0.0 0.0 0.00 0.00 0.00 99 1014.6
20260505162517 60 0.0 0.0 0.00 0.00 0.00 99 1014.7
20260505162017 60 0.0 0.0 0.00 0.00 0.00 99 1014.7
20260505161500 62 0.0 0.0 0.00 0.00 0.00 99 1014.7
20260505160952 62 0.0 0.0 0.00 0.00 0.00 99 1014.8
20260505160449 63 0.0 0.0 0.00 0.00 0.00 99 1014.6
20260505153357 63 0.0 0.0 0.00 0.00 0.00 99 1014.7
20260505152848 66 0.0 0.0 0.00 0.00 0.00 99 1014.6
20260505152341 63 0.0 0.0 0.00 0.00 0.00 99 1014.5
20260505151840 63 0.0 0.0 0.00 0.00 0.00 99 1014.6
20260505151324 65 0.0 0.0 0.00 0.00 0.00 99 1014.7
20260505150821 64 0.0 0.0 0.00 0.00 0.00 99 1014.7
20260505150312 64 0.0 0.0 0.00 0.00 0.00 99 1014.7
20260505140652 67 0.0 0.0 0.00 0.00 0.00 99 1014.6
20260505140144 66 0.0 0.0 0.00 0.00 0.00 99 1014.6
20260505125000 64 0.0 0.0 0.00 0.00 0.00 99 1015.1
20260505124500 65 0.0 0.0 0.00 0.00 0.00 99 1015.2
20260505123943 69 0.0 0.0 0.00 0.00 0.00 99 1015.1
20260505123435 66 0.0 0.0 0.00 0.00 0.00 99 1015.1
20260505122927 67 0.0 0.0 0.00 0.00 0.00 99 1015.1
20260505122419 64 0.0 0.0 0.00 0.00 0.00 99 1015.1
20260505121911 61 0.0 0.0 0.00 0.00 0.00 99 1015.1
20260505121411 63 0.0 0.0 0.00 0.00 0.00 99 1015.2
20260505120900 61 0.0 0.0 0.00 0.00 0.00 99 1015.3
20260505120859 61 0.0 0.0 0.00 0.00 0.00 99 1015.3
20260505120351 60 0.0 0.0 0.00 0.00 0.00 99 1015.3
20260505115842 59 0.0 0.0 0.00 0.00 0.00 99 1015.4
20260505115334 58 0.0 0.0 0.00 0.00 0.00 99 1015.5